sensor_id;sensor_type;location;lat;lon;timestamp;P1;durP1;ratioP1;P2;durP2;ratioP2
21822;SDS011;11074;48.596;9.238;2024-01-11T00:01:08;36.25;;;21.73;;
21822;SDS011;11074;48.596;9.238;2024-01-11T00:03:34;42.58;;;23.05;;
21822;SDS011;11074;48.596;9.238;2024-01-11T00:06:00;41.25;;;21.95;;
21822;SDS011;11074;48.596;9.238;2024-01-11T00:08:26;42.50;;;22.48;;
21822;SDS011;11074;48.596;9.238;2024-01-11T00:10:51;41.72;;;22.05;;
21822;SDS011;11074;48.596;9.238;2024-01-11T00:13:17;44.30;;;22.67;;
21822;SDS011;11074;48.596;9.238;2024-01-11T00:15:42;47.33;;;23.00;;
21822;SDS011;11074;48.596;9.238;2024-01-11T00:18:07;43.63;;;22.43;;
21822;SDS011;11074;48.596;9.238;2024-01-11T00:20:32;44.28;;;22.45;;
21822;SDS011;11074;48.596;9.238;2024-01-11T00:22:58;43.47;;;22.90;;
21822;SDS011;11074;48.596;9.238;2024-01-11T00:25:23;45.97;;;22.70;;
21822;SDS011;11074;48.596;9.238;2024-01-11T00:27:48;46.40;;;22.35;;
21822;SDS011;11074;48.596;9.238;2024-01-11T00:30:14;46.15;;;23.88;;
21822;SDS011;11074;48.596;9.238;2024-01-11T00:32:39;46.55;;;23.42;;
21822;SDS011;11074;48.596;9.238;2024-01-11T00:35:05;42.35;;;22.60;;
21822;SDS011;11074;48.596;9.238;2024-01-11T00:37:30;43.38;;;22.55;;
21822;SDS011;11074;48.596;9.238;2024-01-11T00:39:56;44.25;;;22.10;;
21822;SDS011;11074;48.596;9.238;2024-01-11T00:42:21;43.63;;;22.02;;
21822;SDS011;11074;48.596;9.238;2024-01-11T00:44:46;50.28;;;23.65;;
21822;SDS011;11074;48.596;9.238;2024-01-11T00:47:12;40.97;;;22.63;;
21822;SDS011;11074;48.596;9.238;2024-01-11T00:49:37;46.63;;;21.77;;
21822;SDS011;11074;48.596;9.238;2024-01-11T00:52:02;42.63;;;21.88;;
21822;SDS011;11074;48.596;9.238;2024-01-11T00:54:28;42.65;;;22.48;;
21822;SDS011;11074;48.596;9.238;2024-01-11T00:56:53;42.55;;;21.67;;
21822;SDS011;11074;48.596;9.238;2024-01-11T00:59:18;47.73;;;22.27;;
21822;SDS011;11074;48.596;9.238;2024-01-11T01:01:49;47.17;;;21.70;;
21822;SDS011;11074;48.596;9.238;2024-01-11T01:04:15;43.97;;;22.33;;
21822;SDS011;11074;48.596;9.238;2024-01-11T01:06:41;41.05;;;21.13;;
21822;SDS011;11074;48.596;9.238;2024-01-11T01:09:06;45.85;;;23.83;;
21822;SDS011;11074;48.596;9.238;2024-01-11T01:11:32;44.53;;;22.92;;
21822;SDS011;11074;48.596;9.238;2024-01-11T01:13:57;45.13;;;22.17;;
21822;SDS011;11074;48.596;9.238;2024-01-11T01:16:22;44.67;;;22.38;;
21822;SDS011;11074;48.596;9.238;2024-01-11T01:18:48;46.43;;;22.50;;
21822;SDS011;11074;48.596;9.238;2024-01-11T01:21:13;48.03;;;21.80;;
21822;SDS011;11074;48.596;9.238;2024-01-11T01:23:38;43.17;;;22.63;;
21822;SDS011;11074;48.596;9.238;2024-01-11T01:26:04;42.92;;;22.85;;
21822;SDS011;11074;48.596;9.238;2024-01-11T01:28:29;43.90;;;22.50;;
21822;SDS011;11074;48.596;9.238;2024-01-11T01:30:54;48.63;;;23.30;;
21822;SDS011;11074;48.596;9.238;2024-01-11T01:33:19;43.40;;;21.40;;
21822;SDS011;11074;48.596;9.238;2024-01-11T01:35:45;43.50;;;22.67;;
21822;SDS011;11074;48.596;9.238;2024-01-11T01:38:11;43.75;;;22.23;;
21822;SDS011;11074;48.596;9.238;2024-01-11T01:40:36;42.35;;;22.77;;
21822;SDS011;11074;48.596;9.238;2024-01-11T01:43:06;48.05;;;22.80;;
21822;SDS011;11074;48.596;9.238;2024-01-11T01:45:32;43.10;;;22.55;;
21822;SDS011;11074;48.596;9.238;2024-01-11T01:47:58;42.30;;;21.58;;
21822;SDS011;11074;48.596;9.238;2024-01-11T01:50:23;49.17;;;21.63;;
21822;SDS011;11074;48.596;9.238;2024-01-11T01:52:48;41.72;;;21.55;;
21822;SDS011;11074;48.596;9.238;2024-01-11T01:55:16;43.25;;;21.00;;
21822;SDS011;11074;48.596;9.238;2024-01-11T01:57:42;48.30;;;21.25;;
21822;SDS011;11074;48.596;9.238;2024-01-11T02:00:10;48.03;;;22.95;;
21822;SDS011;11074;48.596;9.238;2024-01-11T02:02:36;45.13;;;22.13;;
21822;SDS011;11074;48.596;9.238;2024-01-11T02:05:03;48.38;;;21.73;;
21822;SDS011;11074;48.596;9.238;2024-01-11T02:07:30;45.35;;;20.30;;
21822;SDS011;11074;48.596;9.238;2024-01-11T02:09:56;49.45;;;22.15;;
21822;SDS011;11074;48.596;9.238;2024-01-11T02:12:21;47.22;;;21.90;;
21822;SDS011;11074;48.596;9.238;2024-01-11T02:14:47;42.65;;;21.60;;
21822;SDS011;11074;48.596;9.238;2024-01-11T02:17:12;45.35;;;21.60;;
21822;SDS011;11074;48.596;9.238;2024-01-11T02:19:37;45.08;;;20.85;;
21822;SDS011;11074;48.596;9.238;2024-01-11T02:22:05;43.38;;;21.40;;
21822;SDS011;11074;48.596;9.238;2024-01-11T02:24:38;43.70;;;22.05;;
21822;SDS011;11074;48.596;9.238;2024-01-11T02:27:04;40.92;;;21.80;;
21822;SDS011;11074;48.596;9.238;2024-01-11T02:29:30;38.80;;;21.45;;
21822;SDS011;11074;48.596;9.238;2024-01-11T02:31:56;43.03;;;21.25;;
21822;SDS011;11074;48.596;9.238;2024-01-11T02:34:24;42.90;;;21.05;;
21822;SDS011;11074;48.596;9.238;2024-01-11T02:36:52;44.03;;;22.27;;
21822;SDS011;11074;48.596;9.238;2024-01-11T02:39:18;42.03;;;21.92;;
21822;SDS011;11074;48.596;9.238;2024-01-11T02:41:44;47.10;;;22.80;;
21822;SDS011;11074;48.596;9.238;2024-01-11T02:44:10;45.70;;;22.30;;
21822;SDS011;11074;48.596;9.238;2024-01-11T02:46:35;44.63;;;21.70;;
21822;SDS011;11074;48.596;9.238;2024-01-11T02:49:01;43.42;;;21.42;;
21822;SDS011;11074;48.596;9.238;2024-01-11T02:51:26;45.80;;;21.83;;
21822;SDS011;11074;48.596;9.238;2024-01-11T02:53:51;44.30;;;22.53;;
21822;SDS011;11074;48.596;9.238;2024-01-11T02:56:16;44.63;;;21.92;;
21822;SDS011;11074;48.596;9.238;2024-01-11T02:58:42;44.47;;;21.97;;
21822;SDS011;11074;48.596;9.238;2024-01-11T03:01:07;43.70;;;21.47;;
21822;SDS011;11074;48.596;9.238;2024-01-11T03:03:32;41.30;;;21.38;;
21822;SDS011;11074;48.596;9.238;2024-01-11T03:05:58;46.03;;;22.30;;
21822;SDS011;11074;48.596;9.238;2024-01-11T03:08:23;43.55;;;22.05;;
21822;SDS011;11074;48.596;9.238;2024-01-11T03:10:48;44.42;;;22.70;;
21822;SDS011;11074;48.596;9.238;2024-01-11T03:13:13;42.00;;;20.95;;
21822;SDS011;11074;48.596;9.238;2024-01-11T03:15:39;50.30;;;22.80;;
21822;SDS011;11074;48.596;9.238;2024-01-11T03:18:04;46.53;;;23.98;;
21822;SDS011;11074;48.596;9.238;2024-01-11T03:20:30;45.45;;;23.25;;
21822;SDS011;11074;48.596;9.238;2024-01-11T03:22:55;47.10;;;23.58;;
21822;SDS011;11074;48.596;9.238;2024-01-11T03:25:20;47.42;;;23.38;;
21822;SDS011;11074;48.596;9.238;2024-01-11T03:27:46;45.30;;;23.23;;
21822;SDS011;11074;48.596;9.238;2024-01-11T03:30:11;46.10;;;23.60;;
21822;SDS011;11074;48.596;9.238;2024-01-11T03:32:37;43.65;;;23.55;;
21822;SDS011;11074;48.596;9.238;2024-01-11T03:35:03;40.92;;;22.67;;
21822;SDS011;11074;48.596;9.238;2024-01-11T03:37:31;41.83;;;22.20;;
21822;SDS011;11074;48.596;9.238;2024-01-11T03:39:56;46.13;;;22.90;;
21822;SDS011;11074;48.596;9.238;2024-01-11T03:42:21;44.60;;;21.93;;
21822;SDS011;11074;48.596;9.238;2024-01-11T03:44:47;42.97;;;22.02;;
21822;SDS011;11074;48.596;9.238;2024-01-11T03:47:12;45.95;;;22.00;;
21822;SDS011;11074;48.596;9.238;2024-01-11T03:49:38;43.90;;;21.27;;
21822;SDS011;11074;48.596;9.238;2024-01-11T03:52:03;47.35;;;21.73;;
21822;SDS011;11074;48.596;9.238;2024-01-11T03:54:29;41.58;;;21.45;;
21822;SDS011;11074;48.596;9.238;2024-01-11T03:56:54;44.73;;;21.93;;
21822;SDS011;11074;48.596;9.238;2024-01-11T03:59:19;42.13;;;20.80;;
21822;SDS011;11074;48.596;9.238;2024-01-11T04:01:45;40.22;;;21.30;;
21822;SDS011;11074;48.596;9.238;2024-01-11T04:04:10;47.88;;;22.55;;
21822;SDS011;11074;48.596;9.238;2024-01-11T04:06:35;44.05;;;20.23;;
21822;SDS011;11074;48.596;9.238;2024-01-11T04:09:01;46.92;;;21.83;;
21822;SDS011;11074;48.596;9.238;2024-01-11T04:11:29;41.75;;;20.92;;
21822;SDS011;11074;48.596;9.238;2024-01-11T04:13:55;42.58;;;20.52;;
21822;SDS011;11074;48.596;9.238;2024-01-11T04:16:20;46.53;;;21.58;;
21822;SDS011;11074;48.596;9.238;2024-01-11T04:18:46;45.42;;;22.25;;
21822;SDS011;11074;48.596;9.238;2024-01-11T04:21:21;45.67;;;21.75;;
21822;SDS011;11074;48.596;9.238;2024-01-11T04:23:58;48.78;;;21.67;;
21822;SDS011;11074;48.596;9.238;2024-01-11T04:26:23;43.35;;;20.60;;
21822;SDS011;11074;48.596;9.238;2024-01-11T04:28:49;41.10;;;19.92;;
21822;SDS011;11074;48.596;9.238;2024-01-11T04:31:15;43.78;;;21.13;;
21822;SDS011;11074;48.596;9.238;2024-01-11T04:33:42;42.97;;;20.83;;
21822;SDS011;11074;48.596;9.238;2024-01-11T04:36:08;43.97;;;22.35;;
21822;SDS011;11074;48.596;9.238;2024-01-11T04:38:34;41.05;;;21.23;;
21822;SDS011;11074;48.596;9.238;2024-01-11T04:40:59;41.25;;;22.02;;
21822;SDS011;11074;48.596;9.238;2024-01-11T04:43:25;48.63;;;22.33;;
21822;SDS011;11074;48.596;9.238;2024-01-11T04:45:51;43.78;;;20.67;;
21822;SDS011;11074;48.596;9.238;2024-01-11T04:48:16;42.75;;;22.42;;
21822;SDS011;11074;48.596;9.238;2024-01-11T04:50:42;44.17;;;21.60;;
21822;SDS011;11074;48.596;9.238;2024-01-11T04:53:08;40.70;;;21.00;;
21822;SDS011;11074;48.596;9.238;2024-01-11T04:55:33;44.85;;;21.45;;
21822;SDS011;11074;48.596;9.238;2024-01-11T04:57:59;40.85;;;21.10;;
21822;SDS011;11074;48.596;9.238;2024-01-11T05:00:24;43.63;;;21.13;;
21822;SDS011;11074;48.596;9.238;2024-01-11T05:02:49;41.45;;;21.75;;
21822;SDS011;11074;48.596;9.238;2024-01-11T05:05:15;45.80;;;22.58;;
21822;SDS011;11074;48.596;9.238;2024-01-11T05:07:40;44.22;;;21.92;;
21822;SDS011;11074;48.596;9.238;2024-01-11T05:10:06;44.97;;;21.15;;
21822;SDS011;11074;48.596;9.238;2024-01-11T05:12:31;42.13;;;21.00;;
21822;SDS011;11074;48.596;9.238;2024-01-11T05:14:57;43.35;;;21.88;;
21822;SDS011;11074;48.596;9.238;2024-01-11T05:17:22;44.80;;;21.45;;
21822;SDS011;11074;48.596;9.238;2024-01-11T05:19:47;43.80;;;20.93;;
21822;SDS011;11074;48.596;9.238;2024-01-11T05:22:13;42.80;;;21.58;;
21822;SDS011;11074;48.596;9.238;2024-01-11T05:24:38;43.45;;;21.10;;
21822;SDS011;11074;48.596;9.238;2024-01-11T05:27:03;37.75;;;20.35;;
21822;SDS011;11074;48.596;9.238;2024-01-11T05:29:29;44.33;;;21.15;;
21822;SDS011;11074;48.596;9.238;2024-01-11T05:31:54;43.03;;;21.17;;
21822;SDS011;11074;48.596;9.238;2024-01-11T05:34:19;42.50;;;21.38;;
21822;SDS011;11074;48.596;9.238;2024-01-11T05:36:45;38.33;;;20.70;;
21822;SDS011;11074;48.596;9.238;2024-01-11T05:39:10;44.22;;;21.55;;
21822;SDS011;11074;48.596;9.238;2024-01-11T05:41:35;41.47;;;21.63;;
21822;SDS011;11074;48.596;9.238;2024-01-11T05:44:00;45.22;;;21.98;;
21822;SDS011;11074;48.596;9.238;2024-01-11T05:46:26;42.90;;;20.93;;
21822;SDS011;11074;48.596;9.238;2024-01-11T05:48:51;42.67;;;22.17;;
21822;SDS011;11074;48.596;9.238;2024-01-11T05:51:16;43.70;;;21.20;;
21822;SDS011;11074;48.596;9.238;2024-01-11T05:53:41;49.47;;;22.53;;
21822;SDS011;11074;48.596;9.238;2024-01-11T05:56:07;45.47;;;21.23;;
21822;SDS011;11074;48.596;9.238;2024-01-11T05:58:33;43.67;;;21.08;;
21822;SDS011;11074;48.596;9.238;2024-01-11T06:00:58;39.38;;;20.38;;
21822;SDS011;11074;48.596;9.238;2024-01-11T06:03:26;41.10;;;21.38;;
21822;SDS011;11074;48.596;9.238;2024-01-11T06:05:53;45.47;;;20.95;;
21822;SDS011;11074;48.596;9.238;2024-01-11T06:08:18;42.35;;;20.95;;
21822;SDS011;11074;48.596;9.238;2024-01-11T06:10:43;41.90;;;21.10;;
21822;SDS011;11074;48.596;9.238;2024-01-11T06:13:09;42.20;;;21.08;;
21822;SDS011;11074;48.596;9.238;2024-01-11T06:15:34;44.10;;;21.45;;
21822;SDS011;11074;48.596;9.238;2024-01-11T06:17:59;41.10;;;21.20;;
21822;SDS011;11074;48.596;9.238;2024-01-11T06:20:25;39.83;;;20.30;;
21822;SDS011;11074;48.596;9.238;2024-01-11T06:22:50;43.08;;;20.25;;
21822;SDS011;11074;48.596;9.238;2024-01-11T06:25:16;42.47;;;20.83;;
21822;SDS011;11074;48.596;9.238;2024-01-11T06:27:42;41.45;;;20.92;;
21822;SDS011;11074;48.596;9.238;2024-01-11T06:30:08;43.72;;;21.40;;
21822;SDS011;11074;48.596;9.238;2024-01-11T06:32:34;42.00;;;21.45;;
21822;SDS011;11074;48.596;9.238;2024-01-11T06:34:59;41.80;;;21.55;;
21822;SDS011;11074;48.596;9.238;2024-01-11T06:37:25;38.28;;;20.27;;
21822;SDS011;11074;48.596;9.238;2024-01-11T06:39:50;40.35;;;21.30;;
21822;SDS011;11074;48.596;9.238;2024-01-11T06:42:16;44.28;;;21.35;;
21822;SDS011;11074;48.596;9.238;2024-01-11T06:44:41;47.50;;;21.03;;
21822;SDS011;11074;48.596;9.238;2024-01-11T06:47:06;40.77;;;21.50;;
21822;SDS011;11074;48.596;9.238;2024-01-11T06:49:31;44.22;;;22.25;;
21822;SDS011;11074;48.596;9.238;2024-01-11T06:51:57;40.13;;;20.48;;
21822;SDS011;11074;48.596;9.238;2024-01-11T06:54:22;47.75;;;21.70;;
21822;SDS011;11074;48.596;9.238;2024-01-11T06:56:47;44.13;;;22.13;;
21822;SDS011;11074;48.596;9.238;2024-01-11T06:59:13;43.50;;;21.52;;
21822;SDS011;11074;48.596;9.238;2024-01-11T07:01:38;43.63;;;21.38;;
21822;SDS011;11074;48.596;9.238;2024-01-11T07:04:03;43.17;;;20.70;;
21822;SDS011;11074;48.596;9.238;2024-01-11T07:06:29;43.63;;;21.37;;
21822;SDS011;11074;48.596;9.238;2024-01-11T07:08:54;43.60;;;21.27;;
21822;SDS011;11074;48.596;9.238;2024-01-11T07:11:19;42.10;;;21.07;;
21822;SDS011;11074;48.596;9.238;2024-01-11T07:13:44;42.45;;;20.23;;
21822;SDS011;11074;48.596;9.238;2024-01-11T07:16:10;40.87;;;21.17;;
21822;SDS011;11074;48.596;9.238;2024-01-11T07:18:35;40.75;;;20.70;;
21822;SDS011;11074;48.596;9.238;2024-01-11T07:21:00;43.17;;;22.55;;
21822;SDS011;11074;48.596;9.238;2024-01-11T07:23:26;46.15;;;21.58;;
21822;SDS011;11074;48.596;9.238;2024-01-11T07:25:51;41.95;;;22.88;;
21822;SDS011;11074;48.596;9.238;2024-01-11T07:28:17;43.70;;;21.42;;
21822;SDS011;11074;48.596;9.238;2024-01-11T07:30:42;49.58;;;23.10;;
21822;SDS011;11074;48.596;9.238;2024-01-11T07:33:08;44.75;;;22.40;;
21822;SDS011;11074;48.596;9.238;2024-01-11T07:35:34;43.35;;;21.33;;
21822;SDS011;11074;48.596;9.238;2024-01-11T07:37:59;43.67;;;20.85;;
21822;SDS011;11074;48.596;9.238;2024-01-11T07:40:25;45.63;;;20.98;;
21822;SDS011;11074;48.596;9.238;2024-01-11T07:42:50;48.30;;;22.63;;
21822;SDS011;11074;48.596;9.238;2024-01-11T07:45:15;44.80;;;22.30;;
21822;SDS011;11074;48.596;9.238;2024-01-11T07:47:41;46.83;;;21.58;;
21822;SDS011;11074;48.596;9.238;2024-01-11T07:50:07;41.08;;;20.73;;
21822;SDS011;11074;48.596;9.238;2024-01-11T07:52:37;46.25;;;22.83;;
21822;SDS011;11074;48.596;9.238;2024-01-11T07:55:03;70.22;;;34.95;;
21822;SDS011;11074;48.596;9.238;2024-01-11T07:57:36;89.93;;;41.28;;
21822;SDS011;11074;48.596;9.238;2024-01-11T08:00:02;61.17;;;29.35;;
21822;SDS011;11074;48.596;9.238;2024-01-11T08:02:28;43.50;;;22.77;;
21822;SDS011;11074;48.596;9.238;2024-01-11T08:04:54;46.58;;;22.25;;
21822;SDS011;11074;48.596;9.238;2024-01-11T08:07:19;44.40;;;21.90;;
21822;SDS011;11074;48.596;9.238;2024-01-11T08:09:44;45.90;;;22.30;;
21822;SDS011;11074;48.596;9.238;2024-01-11T08:12:10;44.08;;;22.15;;
21822;SDS011;11074;48.596;9.238;2024-01-11T08:14:39;41.47;;;21.58;;
21822;SDS011;11074;48.596;9.238;2024-01-11T08:17:04;42.90;;;21.77;;
21822;SDS011;11074;48.596;9.238;2024-01-11T08:19:32;63.67;;;30.45;;
21822;SDS011;11074;48.596;9.238;2024-01-11T08:21:58;48.78;;;25.33;;
21822;SDS011;11074;48.596;9.238;2024-01-11T08:24:23;52.15;;;27.00;;
21822;SDS011;11074;48.596;9.238;2024-01-11T08:26:49;51.03;;;26.30;;
21822;SDS011;11074;48.596;9.238;2024-01-11T08:29:15;57.05;;;26.20;;
21822;SDS011;11074;48.596;9.238;2024-01-11T08:31:40;54.10;;;24.98;;
21822;SDS011;11074;48.596;9.238;2024-01-11T08:34:08;46.97;;;24.50;;
21822;SDS011;11074;48.596;9.238;2024-01-11T08:36:33;48.28;;;24.00;;
21822;SDS011;11074;48.596;9.238;2024-01-11T08:39:01;44.53;;;23.45;;
21822;SDS011;11074;48.596;9.238;2024-01-11T08:41:27;43.92;;;22.33;;
21822;SDS011;11074;48.596;9.238;2024-01-11T08:43:53;41.47;;;22.48;;
21822;SDS011;11074;48.596;9.238;2024-01-11T08:46:27;46.70;;;23.05;;
21822;SDS011;11074;48.596;9.238;2024-01-11T08:48:53;43.03;;;22.85;;
21822;SDS011;11074;48.596;9.238;2024-01-11T08:51:19;46.97;;;23.60;;
21822;SDS011;11074;48.596;9.238;2024-01-11T08:53:44;51.28;;;23.75;;
21822;SDS011;11074;48.596;9.238;2024-01-11T08:56:09;44.65;;;22.92;;
21822;SDS011;11074;48.596;9.238;2024-01-11T08:58:35;45.22;;;22.55;;
21822;SDS011;11074;48.596;9.238;2024-01-11T09:01:01;45.50;;;22.90;;
21822;SDS011;11074;48.596;9.238;2024-01-11T09:03:26;49.78;;;24.48;;
21822;SDS011;11074;48.596;9.238;2024-01-11T09:05:52;43.97;;;23.77;;
21822;SDS011;11074;48.596;9.238;2024-01-11T09:08:17;48.47;;;24.33;;
21822;SDS011;11074;48.596;9.238;2024-01-11T09:10:42;51.65;;;25.73;;
21822;SDS011;11074;48.596;9.238;2024-01-11T09:13:07;52.83;;;25.52;;
21822;SDS011;11074;48.596;9.238;2024-01-11T09:15:33;53.10;;;25.33;;
21822;SDS011;11074;48.596;9.238;2024-01-11T09:17:58;51.30;;;25.55;;
21822;SDS011;11074;48.596;9.238;2024-01-11T09:20:25;46.50;;;24.63;;
21822;SDS011;11074;48.596;9.238;2024-01-11T09:22:50;49.67;;;25.17;;
21822;SDS011;11074;48.596;9.238;2024-01-11T09:25:15;47.60;;;24.83;;
21822;SDS011;11074;48.596;9.238;2024-01-11T09:27:41;51.30;;;24.88;;
21822;SDS011;11074;48.596;9.238;2024-01-11T09:30:06;52.33;;;24.97;;
21822;SDS011;11074;48.596;9.238;2024-01-11T09:32:32;46.50;;;24.23;;
21822;SDS011;11074;48.596;9.238;2024-01-11T09:34:57;52.60;;;25.88;;
21822;SDS011;11074;48.596;9.238;2024-01-11T09:37:22;48.30;;;25.03;;
21822;SDS011;11074;48.596;9.238;2024-01-11T09:39:48;48.38;;;24.75;;
21822;SDS011;11074;48.596;9.238;2024-01-11T09:42:14;46.08;;;24.58;;
21822;SDS011;11074;48.596;9.238;2024-01-11T09:44:39;50.42;;;26.35;;
21822;SDS011;11074;48.596;9.238;2024-01-11T09:47:07;57.25;;;28.05;;
21822;SDS011;11074;48.596;9.238;2024-01-11T09:49:35;52.90;;;25.98;;
21822;SDS011;11074;48.596;9.238;2024-01-11T09:52:03;57.15;;;27.80;;
21822;SDS011;11074;48.596;9.238;2024-01-11T09:54:29;58.92;;;28.25;;
21822;SDS011;11074;48.596;9.238;2024-01-11T09:56:55;53.97;;;25.83;;
21822;SDS011;11074;48.596;9.238;2024-01-11T09:59:23;50.72;;;27.33;;
21822;SDS011;11074;48.596;9.238;2024-01-11T10:01:50;56.00;;;27.58;;
21822;SDS011;11074;48.596;9.238;2024-01-11T10:04:16;55.78;;;27.80;;
21822;SDS011;11074;48.596;9.238;2024-01-11T10:06:42;54.08;;;26.35;;
21822;SDS011;11074;48.596;9.238;2024-01-11T10:09:08;54.30;;;27.45;;
21822;SDS011;11074;48.596;9.238;2024-01-11T10:11:33;54.55;;;27.58;;
21822;SDS011;11074;48.596;9.238;2024-01-11T10:14:02;59.67;;;28.00;;
21822;SDS011;11074;48.596;9.238;2024-01-11T10:16:30;58.70;;;29.20;;
21822;SDS011;11074;48.596;9.238;2024-01-11T10:18:55;60.55;;;29.02;;
21822;SDS011;11074;48.596;9.238;2024-01-11T10:21:22;56.88;;;29.73;;
21822;SDS011;11074;48.596;9.238;2024-01-11T10:23:51;59.10;;;27.60;;
21822;SDS011;11074;48.596;9.238;2024-01-11T10:26:16;59.80;;;29.83;;
21822;SDS011;11074;48.596;9.238;2024-01-11T10:28:45;58.60;;;29.08;;
21822;SDS011;11074;48.596;9.238;2024-01-11T10:31:11;57.83;;;28.55;;
21822;SDS011;11074;48.596;9.238;2024-01-11T10:33:37;58.97;;;29.98;;
21822;SDS011;11074;48.596;9.238;2024-01-11T10:36:03;58.45;;;28.90;;
21822;SDS011;11074;48.596;9.238;2024-01-11T10:38:29;58.10;;;30.13;;
21822;SDS011;11074;48.596;9.238;2024-01-11T10:40:59;60.47;;;28.95;;
21822;SDS011;11074;48.596;9.238;2024-01-11T10:43:26;61.00;;;29.95;;
21822;SDS011;11074;48.596;9.238;2024-01-11T10:45:52;61.33;;;29.92;;
21822;SDS011;11074;48.596;9.238;2024-01-11T10:48:24;58.10;;;30.48;;
21822;SDS011;11074;48.596;9.238;2024-01-11T10:50:53;59.95;;;28.92;;
21822;SDS011;11074;48.596;9.238;2024-01-11T10:53:38;58.50;;;30.67;;
21822;SDS011;11074;48.596;9.238;2024-01-11T10:56:12;61.03;;;30.35;;
21822;SDS011;11074;48.596;9.238;2024-01-11T10:58:41;58.83;;;30.50;;
21822;SDS011;11074;48.596;9.238;2024-01-11T11:01:08;58.47;;;29.00;;
21822;SDS011;11074;48.596;9.238;2024-01-11T11:03:34;64.45;;;30.98;;
21822;SDS011;11074;48.596;9.238;2024-01-11T11:06:00;60.03;;;30.20;;
21822;SDS011;11074;48.596;9.238;2024-01-11T11:08:29;61.10;;;30.52;;
21822;SDS011;11074;48.596;9.238;2024-01-11T11:10:57;63.28;;;31.70;;
21822;SDS011;11074;48.596;9.238;2024-01-11T11:13:25;61.97;;;30.52;;
21822;SDS011;11074;48.596;9.238;2024-01-11T11:15:54;64.25;;;31.15;;
21822;SDS011;11074;48.596;9.238;2024-01-11T11:18:22;64.18;;;32.67;;
21822;SDS011;11074;48.596;9.238;2024-01-11T11:20:47;61.20;;;29.90;;
21822;SDS011;11074;48.596;9.238;2024-01-11T11:23:16;57.70;;;31.13;;
21822;SDS011;11074;48.596;9.238;2024-01-11T11:25:47;66.57;;;32.38;;
21822;SDS011;11074;48.596;9.238;2024-01-11T11:28:14;66.93;;;33.03;;
21822;SDS011;11074;48.596;9.238;2024-01-11T11:30:43;67.63;;;32.90;;
21822;SDS011;11074;48.596;9.238;2024-01-11T11:33:24;65.18;;;32.78;;
21822;SDS011;11074;48.596;9.238;2024-01-11T11:35:56;64.93;;;33.13;;
21822;SDS011;11074;48.596;9.238;2024-01-11T11:38:25;48.27;;;23.23;;
21822;SDS011;11074;48.596;9.238;2024-01-11T11:40:53;65.57;;;33.63;;
21822;SDS011;11074;48.596;9.238;2024-01-11T11:43:21;73.55;;;34.58;;
21822;SDS011;11074;48.596;9.238;2024-01-11T11:45:46;65.55;;;33.63;;
21822;SDS011;11074;48.596;9.238;2024-01-11T11:53:33;67.75;;;33.17;;
21822;SDS011;11074;48.596;9.238;2024-01-11T11:55:58;67.80;;;34.00;;
21822;SDS011;11074;48.596;9.238;2024-01-11T11:58:25;65.57;;;34.40;;
21822;SDS011;11074;48.596;9.238;2024-01-11T12:00:50;61.63;;;32.28;;
21822;SDS011;11074;48.596;9.238;2024-01-11T12:03:16;64.13;;;32.65;;
21822;SDS011;11074;48.596;9.238;2024-01-11T12:05:41;64.70;;;33.13;;
21822;SDS011;11074;48.596;9.238;2024-01-11T12:08:08;67.45;;;34.22;;
21822;SDS011;11074;48.596;9.238;2024-01-11T12:10:36;69.28;;;34.78;;
21822;SDS011;11074;48.596;9.238;2024-01-11T12:13:01;73.10;;;35.05;;
21822;SDS011;11074;48.596;9.238;2024-01-11T12:15:27;68.38;;;35.15;;
21822;SDS011;11074;48.596;9.238;2024-01-11T12:17:57;64.35;;;33.03;;
21822;SDS011;11074;48.596;9.238;2024-01-11T12:20:23;62.53;;;32.25;;
21822;SDS011;11074;48.596;9.238;2024-01-11T12:22:48;68.20;;;32.63;;
21822;SDS011;11074;48.596;9.238;2024-01-11T12:25:14;57.70;;;32.80;;
21822;SDS011;11074;48.596;9.238;2024-01-11T12:27:39;67.78;;;33.03;;
21822;SDS011;11074;48.596;9.238;2024-01-11T12:30:05;62.20;;;32.83;;
21822;SDS011;11074;48.596;9.238;2024-01-11T12:32:32;61.92;;;33.30;;
21822;SDS011;11074;48.596;9.238;2024-01-11T12:34:57;63.53;;;32.60;;
21822;SDS011;11074;48.596;9.238;2024-01-11T12:37:23;67.05;;;33.45;;
21822;SDS011;11074;48.596;9.238;2024-01-11T12:39:48;63.63;;;33.20;;
21822;SDS011;11074;48.596;9.238;2024-01-11T12:42:14;61.05;;;33.95;;
21822;SDS011;11074;48.596;9.238;2024-01-11T12:44:39;60.72;;;33.75;;
21822;SDS011;11074;48.596;9.238;2024-01-11T12:47:07;63.47;;;33.35;;
21822;SDS011;11074;48.596;9.238;2024-01-11T12:49:35;62.10;;;33.53;;
21822;SDS011;11074;48.596;9.238;2024-01-11T12:52:00;64.38;;;33.08;;
21822;SDS011;11074;48.596;9.238;2024-01-11T12:54:25;58.95;;;32.97;;
21822;SDS011;11074;48.596;9.238;2024-01-11T13:00:13;59.65;;;32.90;;
21822;SDS011;11074;48.596;9.238;2024-01-11T13:02:39;63.50;;;33.20;;
21822;SDS011;11074;48.596;9.238;2024-01-11T13:05:12;61.25;;;32.53;;
21822;SDS011;11074;48.596;9.238;2024-01-11T13:07:37;59.92;;;32.53;;
21822;SDS011;11074;48.596;9.238;2024-01-11T13:10:03;62.90;;;32.63;;
21822;SDS011;11074;48.596;9.238;2024-01-11T13:12:29;62.42;;;33.40;;
21822;SDS011;11074;48.596;9.238;2024-01-11T13:14:55;60.92;;;32.33;;
21822;SDS011;11074;48.596;9.238;2024-01-11T13:17:21;57.80;;;33.45;;
21822;SDS011;11074;48.596;9.238;2024-01-11T13:19:46;65.28;;;33.72;;
21822;SDS011;11074;48.596;9.238;2024-01-11T13:22:12;63.28;;;33.03;;
21822;SDS011;11074;48.596;9.238;2024-01-11T13:24:37;63.40;;;34.38;;
21822;SDS011;11074;48.596;9.238;2024-01-11T13:27:03;68.40;;;33.73;;
21822;SDS011;11074;48.596;9.238;2024-01-11T13:29:28;63.75;;;33.72;;
21822;SDS011;11074;48.596;9.238;2024-01-11T13:31:53;59.47;;;32.43;;
21822;SDS011;11074;48.596;9.238;2024-01-11T13:34:19;56.58;;;32.92;;
21822;SDS011;11074;48.596;9.238;2024-01-11T13:36:44;58.80;;;30.87;;
21822;SDS011;11074;48.596;9.238;2024-01-11T13:39:10;61.05;;;31.48;;
21822;SDS011;11074;48.596;9.238;2024-01-11T13:41:35;60.60;;;32.90;;
21822;SDS011;11074;48.596;9.238;2024-01-11T13:44:01;59.38;;;31.88;;
21822;SDS011;11074;48.596;9.238;2024-01-11T13:46:26;57.03;;;31.73;;
21822;SDS011;11074;48.596;9.238;2024-01-11T13:48:51;60.30;;;32.33;;
21822;SDS011;11074;48.596;9.238;2024-01-11T13:51:18;59.13;;;32.72;;
21822;SDS011;11074;48.596;9.238;2024-01-11T13:53:43;56.23;;;31.27;;
21822;SDS011;11074;48.596;9.238;2024-01-11T13:56:08;57.90;;;33.57;;
21822;SDS011;11074;48.596;9.238;2024-01-11T13:58:34;55.53;;;33.15;;
21822;SDS011;11074;48.596;9.238;2024-01-11T14:00:59;57.15;;;32.83;;
21822;SDS011;11074;48.596;9.238;2024-01-11T14:03:25;58.25;;;32.97;;
21822;SDS011;11074;48.596;9.238;2024-01-11T14:05:50;57.28;;;34.60;;
21822;SDS011;11074;48.596;9.238;2024-01-11T14:08:15;62.42;;;34.00;;
21822;SDS011;11074;48.596;9.238;2024-01-11T14:10:41;59.88;;;35.40;;
21822;SDS011;11074;48.596;9.238;2024-01-11T14:13:06;58.27;;;34.33;;
21822;SDS011;11074;48.596;9.238;2024-01-11T14:15:31;56.55;;;33.45;;
21822;SDS011;11074;48.596;9.238;2024-01-11T14:17:57;55.67;;;33.95;;
21822;SDS011;11074;48.596;9.238;2024-01-11T14:20:22;58.13;;;34.87;;
21822;SDS011;11074;48.596;9.238;2024-01-11T14:22:49;59.42;;;34.78;;